KTZ6548 KCKC-KMSP
Flight info
| Callsign | KTZ6548 |
|---|---|
| Flight time | 1h 6m |
| Altitude | 24000 |
| Route | DLH GOLLF GEP1 |
| Aircraft | AT46/M-SDFGIRY/S |
Departure
| Time | 2026-05-06 08:41 |
|---|---|
| Airport | Grand Marais Cook County Airport (KCKC) |
Arrival
| Time | 2026-05-06 09:47 |
|---|---|
| Airport | Minneapolis–Saint Paul International Airport / Wold–Chamberlain Field (KMSP) |
| Time | Latitude | Longitude | Altitude | Speed | Heading |
|---|---|---|---|---|---|
| 2026-05-06 08:19 | 47.83672 | -90.38343 | 1803 ft | 0 kts | 184° |
| 2026-05-06 08:32 | 47.83667 | -90.38345 | 1800 ft | 3 kts | 199° |
| 2026-05-06 08:33 | 47.83657 | -90.38370 | 1800 ft | 2 kts | 275° |
| 2026-05-06 08:33 | 47.83658 | -90.38379 | 1803 ft | 0 kts | 276° |
| 2026-05-06 08:37 | 47.83665 | -90.38409 | 1804 ft | 4 kts | 302° |
| 2026-05-06 08:37 | 47.83672 | -90.38423 | 1801 ft | 0 kts | 306° |
| 2026-05-06 08:37 | 47.83709 | -90.38488 | 1804 ft | 13 kts | 324° |
| 2026-05-06 08:38 | 47.83785 | -90.38498 | 1808 ft | 12 kts | 4° |
| 2026-05-06 08:38 | 47.83841 | -90.38463 | 1808 ft | 12 kts | 78° |
| 2026-05-06 08:38 | 47.83831 | -90.38297 | 1808 ft | 15 kts | 94° |
| 2026-05-06 08:38 | 47.83824 | -90.38136 | 1803 ft | 19 kts | 91° |
| 2026-05-06 08:39 | 47.83814 | -90.37937 | 1799 ft | 18 kts | 98° |
| 2026-05-06 08:39 | 47.83802 | -90.37748 | 1797 ft | 24 kts | 94° |
| 2026-05-06 08:39 | 47.83791 | -90.37520 | 1794 ft | 17 kts | 104° |
| 2026-05-06 08:39 | 47.83777 | -90.37473 | 1793 ft | 1 kts | 69° |
| 2026-05-06 08:40 | 47.83785 | -90.37477 | 1793 ft | 5 kts | 320° |
| 2026-05-06 08:40 | 47.83796 | -90.37554 | 1794 ft | 13 kts | 275° |
| 2026-05-06 08:40 | 47.83823 | -90.38057 | 1802 ft | 85 kts | 275° |
| 2026-05-06 08:40 | 47.83865 | -90.39169 | 2018 ft | 116 kts | 272° |
| 2026-05-06 08:41 | 47.83741 | -90.40260 | 2870 ft | 113 kts | 247° |
| 2026-05-06 08:41 | 47.83288 | -90.41318 | 3340 ft | 133 kts | 242° |
| 2026-05-06 08:41 | 47.82648 | -90.42523 | 3807 ft | 150 kts | 230° |
| 2026-05-06 08:41 | 47.81950 | -90.43616 | 4543 ft | 149 kts | 235° |
| 2026-05-06 08:42 | 47.81241 | -90.44885 | 4862 ft | 166 kts | 237° |
| 2026-05-06 08:42 | 47.80521 | -90.46241 | 5440 ft | 167 kts | 237° |
| 2026-05-06 08:42 | 47.79800 | -90.47589 | 6060 ft | 167 kts | 236° |
| 2026-05-06 08:42 | 47.79064 | -90.48929 | 6617 ft | 168 kts | 236° |
| 2026-05-06 08:43 | 47.78320 | -90.50270 | 7165 ft | 168 kts | 235° |
| 2026-05-06 08:43 | 47.77572 | -90.51615 | 7721 ft | 169 kts | 235° |
| 2026-05-06 08:43 | 47.76814 | -90.52960 | 8254 ft | 170 kts | 235° |
| 2026-05-06 08:43 | 47.76063 | -90.54298 | 8799 ft | 171 kts | 235° |
| 2026-05-06 08:44 | 47.75304 | -90.55659 | 9327 ft | 172 kts | 235° |
| 2026-05-06 08:44 | 47.74535 | -90.57029 | 9857 ft | 172 kts | 234° |
| 2026-05-06 08:44 | 47.73767 | -90.58403 | 10326 ft | 173 kts | 234° |
| 2026-05-06 08:44 | 47.72989 | -90.59788 | 10801 ft | 175 kts | 234° |
| 2026-05-06 08:45 | 47.72208 | -90.61179 | 11257 ft | 176 kts | 234° |
| 2026-05-06 08:45 | 47.71423 | -90.62581 | 11722 ft | 177 kts | 234° |
| 2026-05-06 08:45 | 47.70631 | -90.63989 | 12179 ft | 178 kts | 234° |
| 2026-05-06 08:45 | 47.69843 | -90.65391 | 12625 ft | 179 kts | 234° |
| 2026-05-06 08:46 | 47.69042 | -90.66815 | 13079 ft | 180 kts | 234° |
| 2026-05-06 08:46 | 47.68228 | -90.68252 | 13524 ft | 181 kts | 234° |
| 2026-05-06 08:46 | 47.67427 | -90.69680 | 13932 ft | 183 kts | 234° |
| 2026-05-06 08:46 | 47.66608 | -90.71133 | 14315 ft | 184 kts | 234° |
| 2026-05-06 08:47 | 47.65784 | -90.72597 | 14690 ft | 185 kts | 234° |
| 2026-05-06 08:47 | 47.64952 | -90.74073 | 15072 ft | 187 kts | 234° |
| 2026-05-06 08:47 | 47.64115 | -90.75562 | 15453 ft | 188 kts | 233° |
| 2026-05-06 08:47 | 47.63273 | -90.77056 | 15813 ft | 189 kts | 233° |
| 2026-05-06 08:48 | 47.62421 | -90.78554 | 16180 ft | 190 kts | 233° |
| 2026-05-06 08:48 | 47.61577 | -90.80041 | 16528 ft | 192 kts | 233° |
| 2026-05-06 08:48 | 47.60712 | -90.81568 | 16871 ft | 193 kts | 233° |
| 2026-05-06 08:48 | 47.59844 | -90.83101 | 17208 ft | 194 kts | 233° |
| 2026-05-06 08:49 | 47.58977 | -90.84616 | 17547 ft | 195 kts | 232° |
| 2026-05-06 08:49 | 47.58090 | -90.86157 | 17887 ft | 196 kts | 232° |
| 2026-05-06 08:49 | 47.57208 | -90.87709 | 18212 ft | 198 kts | 233° |
| 2026-05-06 08:49 | 47.56318 | -90.89284 | 18501 ft | 198 kts | 233° |
| 2026-05-06 08:50 | 47.55429 | -90.90852 | 18780 ft | 198 kts | 233° |
| 2026-05-06 08:50 | 47.54550 | -90.92398 | 19049 ft | 198 kts | 233° |
| 2026-05-06 08:50 | 47.53657 | -90.93961 | 19329 ft | 198 kts | 233° |
| 2026-05-06 08:50 | 47.52760 | -90.95523 | 19624 ft | 199 kts | 233° |
| 2026-05-06 08:51 | 47.51861 | -90.97076 | 19911 ft | 199 kts | 233° |
| 2026-05-06 08:51 | 47.50974 | -90.98622 | 20174 ft | 199 kts | 233° |
| 2026-05-06 08:51 | 47.50077 | -91.00190 | 20443 ft | 199 kts | 233° |
| 2026-05-06 08:51 | 47.49183 | -91.01756 | 20699 ft | 199 kts | 234° |
| 2026-05-06 08:52 | 47.48290 | -91.03325 | 20956 ft | 199 kts | 234° |
| 2026-05-06 08:52 | 47.47404 | -91.04879 | 21191 ft | 199 kts | 234° |
| 2026-05-06 08:52 | 47.46508 | -91.06450 | 21426 ft | 200 kts | 234° |
| 2026-05-06 08:52 | 47.45604 | -91.08027 | 21669 ft | 200 kts | 234° |
| 2026-05-06 08:53 | 47.44717 | -91.09577 | 21915 ft | 200 kts | 234° |
| 2026-05-06 08:53 | 47.43816 | -91.11154 | 22164 ft | 200 kts | 234° |
| 2026-05-06 08:53 | 47.42913 | -91.12730 | 22403 ft | 201 kts | 234° |
| 2026-05-06 08:53 | 47.42011 | -91.14307 | 22629 ft | 201 kts | 234° |
| 2026-05-06 08:54 | 47.41115 | -91.15868 | 22846 ft | 201 kts | 234° |
| 2026-05-06 08:54 | 47.40208 | -91.17450 | 23074 ft | 202 kts | 235° |
| 2026-05-06 08:54 | 47.39300 | -91.19032 | 23276 ft | 202 kts | 235° |
| 2026-05-06 08:54 | 47.38388 | -91.20621 | 23474 ft | 202 kts | 235° |
| 2026-05-06 08:55 | 47.37477 | -91.22208 | 23654 ft | 203 kts | 235° |
| 2026-05-06 08:55 | 47.36563 | -91.23800 | 23803 ft | 203 kts | 235° |
| 2026-05-06 08:55 | 47.35652 | -91.25384 | 23896 ft | 207 kts | 235° |
| 2026-05-06 08:55 | 47.34701 | -91.27043 | 23951 ft | 215 kts | 234° |
| 2026-05-06 08:56 | 47.33710 | -91.28771 | 23972 ft | 225 kts | 234° |
| 2026-05-06 08:56 | 47.32683 | -91.30571 | 23982 ft | 233 kts | 234° |
| 2026-05-06 08:56 | 47.31629 | -91.32401 | 23984 ft | 240 kts | 234° |
| 2026-05-06 08:56 | 47.30530 | -91.34299 | 23987 ft | 246 kts | 234° |
| 2026-05-06 08:57 | 47.29408 | -91.36243 | 23988 ft | 251 kts | 234° |
| 2026-05-06 08:57 | 47.28266 | -91.38221 | 23989 ft | 255 kts | 233° |
| 2026-05-06 08:57 | 47.27106 | -91.40229 | 23984 ft | 258 kts | 233° |
| 2026-05-06 08:57 | 47.25936 | -91.42255 | 23987 ft | 260 kts | 233° |
| 2026-05-06 08:58 | 47.24756 | -91.44294 | 23984 ft | 262 kts | 233° |
| 2026-05-06 08:58 | 47.23581 | -91.46324 | 23985 ft | 263 kts | 233° |
| 2026-05-06 08:58 | 47.22391 | -91.48379 | 23979 ft | 265 kts | 233° |
| 2026-05-06 08:58 | 47.21189 | -91.50453 | 23978 ft | 265 kts | 233° |
| 2026-05-06 08:59 | 47.19990 | -91.52519 | 23975 ft | 266 kts | 233° |
| 2026-05-06 08:59 | 47.18800 | -91.54569 | 23977 ft | 267 kts | 233° |
| 2026-05-06 08:59 | 47.17594 | -91.56648 | 23972 ft | 267 kts | 233° |
| 2026-05-06 08:59 | 47.16383 | -91.58728 | 23969 ft | 267 kts | 233° |
| 2026-05-06 09:00 | 47.15171 | -91.60811 | 23967 ft | 268 kts | 233° |
| 2026-05-06 09:00 | 47.13957 | -91.62896 | 23964 ft | 268 kts | 233° |
| 2026-05-06 09:00 | 47.12744 | -91.64974 | 23960 ft | 268 kts | 233° |
| 2026-05-06 09:00 | 47.11543 | -91.67036 | 23963 ft | 268 kts | 233° |
| 2026-05-06 09:01 | 47.10326 | -91.69118 | 23969 ft | 268 kts | 233° |
| 2026-05-06 09:01 | 47.09107 | -91.71204 | 23968 ft | 269 kts | 233° |
| 2026-05-06 09:01 | 47.07888 | -91.73287 | 23970 ft | 269 kts | 233° |
| 2026-05-06 09:01 | 47.06670 | -91.75367 | 23971 ft | 268 kts | 233° |
| 2026-05-06 09:02 | 47.05455 | -91.77442 | 23969 ft | 268 kts | 233° |
| 2026-05-06 09:02 | 47.04251 | -91.79499 | 23968 ft | 268 kts | 233° |
| 2026-05-06 09:02 | 47.03030 | -91.81582 | 23967 ft | 268 kts | 233° |
| 2026-05-06 09:02 | 47.01809 | -91.83661 | 23972 ft | 268 kts | 233° |
| 2026-05-06 09:03 | 47.00592 | -91.85733 | 23969 ft | 268 kts | 233° |
| 2026-05-06 09:03 | 46.99375 | -91.87804 | 23975 ft | 268 kts | 233° |
| 2026-05-06 09:03 | 46.98155 | -91.89879 | 23978 ft | 268 kts | 233° |
| 2026-05-06 09:03 | 46.96952 | -91.91922 | 23975 ft | 268 kts | 233° |
| 2026-05-06 09:04 | 46.95733 | -91.93990 | 23975 ft | 268 kts | 233° |
| 2026-05-06 09:04 | 46.94513 | -91.96061 | 23974 ft | 268 kts | 233° |
| 2026-05-06 09:04 | 46.93294 | -91.98125 | 23974 ft | 268 kts | 233° |
| 2026-05-06 09:04 | 46.92072 | -92.00197 | 23975 ft | 268 kts | 233° |
| 2026-05-06 09:05 | 46.90867 | -92.02235 | 23977 ft | 268 kts | 233° |
| 2026-05-06 09:05 | 46.89650 | -92.04296 | 23977 ft | 268 kts | 233° |
| 2026-05-06 09:05 | 46.88424 | -92.06365 | 23974 ft | 268 kts | 233° |
| 2026-05-06 09:05 | 46.87206 | -92.08424 | 23970 ft | 268 kts | 233° |
| 2026-05-06 09:06 | 46.85987 | -92.10481 | 23971 ft | 268 kts | 233° |
| 2026-05-06 09:06 | 46.84763 | -92.12544 | 23972 ft | 268 kts | 233° |
| 2026-05-06 09:06 | 46.83560 | -92.14571 | 23971 ft | 268 kts | 233° |
| 2026-05-06 09:06 | 46.82341 | -92.16623 | 23970 ft | 268 kts | 233° |
| 2026-05-06 09:07 | 46.81115 | -92.18678 | 23971 ft | 268 kts | 233° |
| 2026-05-06 09:07 | 46.79883 | -92.20731 | 23969 ft | 268 kts | 232° |
| 2026-05-06 09:07 | 46.78602 | -92.22732 | 23970 ft | 269 kts | 230° |
| 2026-05-06 09:07 | 46.77285 | -92.24642 | 23970 ft | 269 kts | 229° |
| 2026-05-06 09:08 | 46.75946 | -92.26559 | 23970 ft | 269 kts | 229° |
| 2026-05-06 09:08 | 46.74600 | -92.28472 | 23976 ft | 269 kts | 229° |
| 2026-05-06 09:08 | 46.73286 | -92.30366 | 23976 ft | 269 kts | 230° |
| 2026-05-06 09:08 | 46.71962 | -92.32296 | 23984 ft | 269 kts | 230° |
| 2026-05-06 09:09 | 46.70642 | -92.34226 | 23979 ft | 269 kts | 230° |
| 2026-05-06 09:09 | 46.69320 | -92.36157 | 23979 ft | 268 kts | 230° |
| 2026-05-06 09:09 | 46.67999 | -92.38085 | 23980 ft | 269 kts | 230° |
| 2026-05-06 09:09 | 46.66675 | -92.40015 | 23977 ft | 269 kts | 230° |
| 2026-05-06 09:10 | 46.65369 | -92.41919 | 23982 ft | 269 kts | 230° |
| 2026-05-06 09:10 | 46.64045 | -92.43848 | 23982 ft | 269 kts | 230° |
| 2026-05-06 09:10 | 46.62718 | -92.45778 | 23980 ft | 269 kts | 229° |
| 2026-05-06 09:10 | 46.61398 | -92.47699 | 23982 ft | 268 kts | 229° |
| 2026-05-06 09:11 | 46.60076 | -92.49619 | 23980 ft | 268 kts | 230° |
| 2026-05-06 09:11 | 46.58756 | -92.51535 | 23981 ft | 268 kts | 229° |
| 2026-05-06 09:11 | 46.57452 | -92.53428 | 23986 ft | 268 kts | 229° |
| 2026-05-06 09:11 | 46.56127 | -92.55349 | 23985 ft | 268 kts | 230° |
| 2026-05-06 09:12 | 46.54800 | -92.57270 | 23987 ft | 268 kts | 230° |
| 2026-05-06 09:12 | 46.53480 | -92.59182 | 23988 ft | 268 kts | 230° |
| 2026-05-06 09:12 | 46.52175 | -92.61069 | 24007 ft | 268 kts | 230° |
| 2026-05-06 09:12 | 46.50853 | -92.62980 | 24005 ft | 268 kts | 230° |
| 2026-05-06 09:13 | 46.49526 | -92.64897 | 24008 ft | 268 kts | 230° |
| 2026-05-06 09:13 | 46.48206 | -92.66801 | 24013 ft | 267 kts | 230° |
| 2026-05-06 09:13 | 46.46883 | -92.68711 | 24013 ft | 268 kts | 230° |
| 2026-05-06 09:13 | 46.45577 | -92.70596 | 24006 ft | 268 kts | 229° |
| 2026-05-06 09:14 | 46.44258 | -92.72493 | 24008 ft | 268 kts | 229° |
| 2026-05-06 09:14 | 46.42929 | -92.74405 | 24006 ft | 268 kts | 229° |
| 2026-05-06 09:14 | 46.41609 | -92.76306 | 24004 ft | 268 kts | 229° |
| 2026-05-06 09:14 | 46.40282 | -92.78213 | 24007 ft | 268 kts | 229° |
| 2026-05-06 09:15 | 46.39406 | -92.79470 | 24008 ft | 267 kts | 229° |
| 2026-05-06 09:15 | 46.37651 | -92.81989 | 24005 ft | 267 kts | 230° |
| 2026-05-06 09:15 | 46.36328 | -92.83884 | 24008 ft | 267 kts | 230° |
| 2026-05-06 09:15 | 46.35450 | -92.85143 | 24008 ft | 267 kts | 229° |
| 2026-05-06 09:16 | 46.34125 | -92.87040 | 24006 ft | 267 kts | 229° |
| 2026-05-06 09:16 | 46.32372 | -92.89549 | 24011 ft | 267 kts | 229° |
| 2026-05-06 09:16 | 46.31475 | -92.90831 | 24013 ft | 267 kts | 229° |
| 2026-05-06 09:16 | 46.30168 | -92.92698 | 24008 ft | 267 kts | 229° |
| 2026-05-06 09:17 | 46.28841 | -92.94594 | 24010 ft | 267 kts | 229° |
| 2026-05-06 09:17 | 46.27516 | -92.96482 | 24008 ft | 267 kts | 229° |
| 2026-05-06 09:17 | 46.26191 | -92.98375 | 24009 ft | 267 kts | 229° |
| 2026-05-06 09:17 | 46.24867 | -93.00262 | 24009 ft | 267 kts | 229° |
| 2026-05-06 09:18 | 46.23540 | -93.02152 | 24008 ft | 267 kts | 229° |
| 2026-05-06 09:18 | 46.22230 | -93.04016 | 24014 ft | 267 kts | 229° |
| 2026-05-06 09:18 | 46.20903 | -93.05901 | 24017 ft | 267 kts | 229° |
| 2026-05-06 09:18 | 46.19577 | -93.07798 | 23775 ft | 268 kts | 230° |
| 2026-05-06 09:19 | 46.18278 | -93.09692 | 23393 ft | 263 kts | 230° |
| 2026-05-06 09:19 | 46.17011 | -93.11538 | 22996 ft | 261 kts | 230° |
| 2026-05-06 09:19 | 46.15721 | -93.13379 | 22583 ft | 261 kts | 229° |
| 2026-05-06 09:19 | 46.14420 | -93.15225 | 22190 ft | 263 kts | 229° |
| 2026-05-06 09:20 | 46.13109 | -93.17086 | 21800 ft | 265 kts | 229° |
| 2026-05-06 09:20 | 46.11782 | -93.18965 | 21413 ft | 267 kts | 229° |
| 2026-05-06 09:20 | 46.10452 | -93.20843 | 21030 ft | 268 kts | 229° |
| 2026-05-06 09:20 | 46.09135 | -93.22707 | 20655 ft | 268 kts | 229° |
| 2026-05-06 09:21 | 46.07799 | -93.24593 | 20286 ft | 268 kts | 229° |
| 2026-05-06 09:21 | 46.06471 | -93.26467 | 19909 ft | 268 kts | 229° |
| 2026-05-06 09:21 | 46.05138 | -93.28351 | 19540 ft | 268 kts | 229° |
| 2026-05-06 09:21 | 46.03823 | -93.30204 | 19184 ft | 268 kts | 229° |
| 2026-05-06 09:22 | 46.02490 | -93.32083 | 18830 ft | 268 kts | 229° |
| 2026-05-06 09:22 | 46.01154 | -93.33961 | 18479 ft | 268 kts | 229° |
| 2026-05-06 09:22 | 45.99822 | -93.35837 | 18093 ft | 268 kts | 229° |
| 2026-05-06 09:22 | 45.98486 | -93.37715 | 17685 ft | 268 kts | 229° |
| 2026-05-06 09:23 | 45.97148 | -93.39593 | 17296 ft | 268 kts | 228° |
| 2026-05-06 09:23 | 45.95830 | -93.41444 | 16905 ft | 268 kts | 228° |
| 2026-05-06 09:23 | 45.94487 | -93.43327 | 16519 ft | 269 kts | 228° |
| 2026-05-06 09:23 | 45.93147 | -93.45207 | 16143 ft | 269 kts | 228° |
| 2026-05-06 09:24 | 45.91803 | -93.47088 | 15771 ft | 269 kts | 228° |
| 2026-05-06 09:24 | 45.90475 | -93.48950 | 15410 ft | 270 kts | 228° |
| 2026-05-06 09:24 | 45.89128 | -93.50833 | 15048 ft | 270 kts | 228° |
| 2026-05-06 09:24 | 45.87780 | -93.52719 | 14691 ft | 271 kts | 228° |
| 2026-05-06 09:25 | 45.86429 | -93.54603 | 14336 ft | 271 kts | 228° |
| 2026-05-06 09:25 | 45.85078 | -93.56492 | 13983 ft | 271 kts | 227° |
| 2026-05-06 09:25 | 45.83716 | -93.58387 | 13607 ft | 272 kts | 227° |
| 2026-05-06 09:25 | 45.82376 | -93.60258 | 13220 ft | 272 kts | 227° |
| 2026-05-06 09:26 | 45.81018 | -93.62146 | 12842 ft | 271 kts | 227° |
| 2026-05-06 09:26 | 45.79664 | -93.64031 | 12468 ft | 271 kts | 227° |
| 2026-05-06 09:26 | 45.78310 | -93.65915 | 12119 ft | 270 kts | 227° |
| 2026-05-06 09:26 | 45.76947 | -93.67760 | 11745 ft | 270 kts | 222° |
| 2026-05-06 09:27 | 45.75201 | -93.68808 | 11352 ft | 280 kts | 191° |
| 2026-05-06 09:27 | 45.73243 | -93.68730 | 10971 ft | 285 kts | 174° |
| 2026-05-06 09:27 | 45.71331 | -93.67999 | 10591 ft | 288 kts | 162° |
| 2026-05-06 09:27 | 45.69463 | -93.66934 | 10193 ft | 289 kts | 159° |
| 2026-05-06 09:28 | 45.67608 | -93.65810 | 9809 ft | 289 kts | 159° |
| 2026-05-06 09:28 | 45.65713 | -93.65031 | 9378 ft | 280 kts | 170° |
| 2026-05-06 09:28 | 45.63868 | -93.64095 | 8960 ft | 283 kts | 158° |
| 2026-05-06 09:28 | 45.62092 | -93.62927 | 8551 ft | 285 kts | 157° |
| 2026-05-06 09:29 | 45.60274 | -93.61767 | 8148 ft | 286 kts | 159° |
| 2026-05-06 09:29 | 45.58419 | -93.60712 | 7746 ft | 283 kts | 162° |
| 2026-05-06 09:29 | 45.56585 | -93.59748 | 7348 ft | 276 kts | 162° |
| 2026-05-06 09:29 | 45.54812 | -93.58796 | 7105 ft | 270 kts | 161° |
| 2026-05-06 09:30 | 45.53092 | -93.57860 | 7043 ft | 262 kts | 162° |
| 2026-05-06 09:30 | 45.51397 | -93.56958 | 7016 ft | 256 kts | 162° |
| 2026-05-06 09:30 | 45.49731 | -93.56065 | 7004 ft | 253 kts | 162° |
| 2026-05-06 09:30 | 45.48085 | -93.55183 | 6998 ft | 251 kts | 162° |
| 2026-05-06 09:31 | 45.46474 | -93.54320 | 6993 ft | 250 kts | 162° |
| 2026-05-06 09:31 | 45.44847 | -93.53447 | 6995 ft | 249 kts | 162° |
| 2026-05-06 09:31 | 45.43212 | -93.52569 | 6994 ft | 251 kts | 162° |
| 2026-05-06 09:31 | 45.41554 | -93.51680 | 6996 ft | 260 kts | 162° |
| 2026-05-06 09:32 | 45.39816 | -93.50749 | 6999 ft | 273 kts | 162° |
| 2026-05-06 09:32 | 45.38045 | -93.49804 | 7001 ft | 273 kts | 163° |
| 2026-05-06 09:32 | 45.36270 | -93.48859 | 6998 ft | 269 kts | 162° |
| 2026-05-06 09:32 | 45.34511 | -93.47902 | 6997 ft | 271 kts | 162° |
| 2026-05-06 09:33 | 45.32766 | -93.46975 | 7001 ft | 270 kts | 162° |
| 2026-05-06 09:33 | 45.31005 | -93.46036 | 6998 ft | 270 kts | 162° |
| 2026-05-06 09:33 | 45.29244 | -93.45099 | 6996 ft | 270 kts | 162° |
| 2026-05-06 09:33 | 45.27485 | -93.44161 | 6996 ft | 269 kts | 162° |
| 2026-05-06 09:34 | 45.25729 | -93.43224 | 6996 ft | 269 kts | 162° |
| 2026-05-06 09:34 | 45.23999 | -93.42302 | 6995 ft | 269 kts | 163° |
| 2026-05-06 09:34 | 45.22240 | -93.41366 | 6995 ft | 269 kts | 163° |
| 2026-05-06 09:34 | 45.20486 | -93.40432 | 6994 ft | 269 kts | 162° |
| 2026-05-06 09:35 | 45.18725 | -93.39497 | 6988 ft | 269 kts | 162° |
| 2026-05-06 09:35 | 45.16975 | -93.38568 | 6991 ft | 269 kts | 162° |
| 2026-05-06 09:35 | 45.15244 | -93.37645 | 6995 ft | 269 kts | 162° |
| 2026-05-06 09:35 | 45.13485 | -93.36700 | 6923 ft | 271 kts | 162° |
| 2026-05-06 09:36 | 45.11716 | -93.35753 | 6743 ft | 271 kts | 162° |
| 2026-05-06 09:36 | 45.09970 | -93.34809 | 6534 ft | 271 kts | 162° |
| 2026-05-06 09:36 | 45.08209 | -93.33850 | 6324 ft | 271 kts | 162° |
| 2026-05-06 09:36 | 45.06438 | -93.32888 | 6103 ft | 271 kts | 162° |
| 2026-05-06 09:37 | 45.04673 | -93.31931 | 5886 ft | 271 kts | 161° |
| 2026-05-06 09:37 | 45.02931 | -93.30979 | 5675 ft | 270 kts | 160° |
| 2026-05-06 09:37 | 45.01424 | -93.29421 | 5454 ft | 271 kts | 129° |
| 2026-05-06 09:37 | 45.00368 | -93.27237 | 5242 ft | 269 kts | 122° |
| 2026-05-06 09:38 | 44.99373 | -93.25004 | 5079 ft | 268 kts | 121° |
| 2026-05-06 09:38 | 44.98397 | -93.22755 | 4868 ft | 268 kts | 120° |
| 2026-05-06 09:38 | 44.97445 | -93.20546 | 4664 ft | 263 kts | 120° |
| 2026-05-06 09:38 | 44.96495 | -93.18360 | 4448 ft | 256 kts | 120° |
| 2026-05-06 09:39 | 44.95589 | -93.16250 | 4227 ft | 248 kts | 120° |
| 2026-05-06 09:39 | 44.94708 | -93.14187 | 4025 ft | 242 kts | 120° |
| 2026-05-06 09:39 | 44.93855 | -93.12190 | 3811 ft | 237 kts | 120° |
| 2026-05-06 09:39 | 44.93009 | -93.10206 | 3603 ft | 234 kts | 120° |
| 2026-05-06 09:40 | 44.92173 | -93.08247 | 3394 ft | 231 kts | 120° |
| 2026-05-06 09:40 | 44.91341 | -93.06303 | 3195 ft | 229 kts | 120° |
| 2026-05-06 09:40 | 44.89743 | -93.02579 | 3048 ft | 216 kts | 120° |
| 2026-05-06 09:41 | 44.88975 | -93.00791 | 3019 ft | 209 kts | 120° |
| 2026-05-06 09:41 | 44.88021 | -92.99330 | 3005 ft | 202 kts | 153° |
| 2026-05-06 09:41 | 44.86679 | -92.99076 | 3009 ft | 194 kts | 197° |
| 2026-05-06 09:41 | 44.85442 | -92.99762 | 3008 ft | 190 kts | 206° |
| 2026-05-06 09:42 | 44.84279 | -93.00499 | 3006 ft | 182 kts | 208° |
| 2026-05-06 09:42 | 44.83146 | -93.01248 | 2998 ft | 176 kts | 208° |
| 2026-05-06 09:42 | 44.82150 | -93.02150 | 2990 ft | 165 kts | 236° |
| 2026-05-06 09:42 | 44.81834 | -93.03614 | 3001 ft | 154 kts | 266° |
| 2026-05-06 09:43 | 44.81705 | -93.05095 | 3008 ft | 153 kts | 268° |
| 2026-05-06 09:43 | 44.81616 | -93.06585 | 2997 ft | 149 kts | 276° |
| 2026-05-06 09:43 | 44.82040 | -93.07853 | 2939 ft | 145 kts | 307° |
| 2026-05-06 09:43 | 44.82567 | -93.09062 | 2758 ft | 140 kts | 302° |
| 2026-05-06 09:44 | 44.83028 | -93.10185 | 2572 ft | 126 kts | 303° |
| 2026-05-06 09:44 | 44.83467 | -93.11203 | 2382 ft | 120 kts | 305° |
| 2026-05-06 09:44 | 44.83905 | -93.12178 | 2198 ft | 116 kts | 305° |
| 2026-05-06 09:44 | 44.84334 | -93.13141 | 1993 ft | 114 kts | 304° |
| 2026-05-06 09:45 | 44.84742 | -93.14096 | 1795 ft | 114 kts | 303° |
| 2026-05-06 09:45 | 44.85145 | -93.15038 | 1595 ft | 114 kts | 303° |
| 2026-05-06 09:45 | 44.85555 | -93.15973 | 1525 ft | 111 kts | 302° |
| 2026-05-06 09:45 | 44.85961 | -93.16908 | 1379 ft | 113 kts | 302° |
| 2026-05-06 09:46 | 44.86379 | -93.17855 | 1254 ft | 115 kts | 301° |
| 2026-05-06 09:46 | 44.86787 | -93.18822 | 1113 ft | 116 kts | 301° |
| 2026-05-06 09:46 | 44.87211 | -93.19804 | 950 ft | 118 kts | 301° |
| 2026-05-06 09:46 | 44.87645 | -93.20793 | 825 ft | 115 kts | 301° |
| 2026-05-06 09:47 | 44.88012 | -93.21639 | 820 ft | 76 kts | 302° |
| 2026-05-06 09:47 | 44.88161 | -93.21978 | 822 ft | 16 kts | 307° |
| 2026-05-06 09:47 | 44.88243 | -93.21999 | 822 ft | 12 kts | 28° |
| 2026-05-06 09:47 | 44.88309 | -93.21935 | 822 ft | 11 kts | 36° |
| 2026-05-06 09:48 | 44.88368 | -93.21871 | 822 ft | 11 kts | 44° |
| 2026-05-06 09:48 | 44.88418 | -93.21795 | 822 ft | 11 kts | 47° |
| 2026-05-06 09:48 | 44.88471 | -93.21719 | 822 ft | 11 kts | 45° |
| 2026-05-06 09:48 | 44.88524 | -93.21644 | 822 ft | 11 kts | 45° |
| 2026-05-06 09:49 | 44.88579 | -93.21568 | 822 ft | 11 kts | 44° |
| 2026-05-06 09:49 | 44.88633 | -93.21491 | 822 ft | 11 kts | 45° |
| 2026-05-06 09:49 | 44.88688 | -93.21413 | 822 ft | 11 kts | 45° |
| 2026-05-06 09:49 | 44.88740 | -93.21334 | 822 ft | 10 kts | 68° |
| 2026-05-06 09:50 | 44.88719 | -93.21236 | 822 ft | 12 kts | 119° |
| 2026-05-06 09:50 | 44.88675 | -93.21133 | 822 ft | 13 kts | 121° |
| 2026-05-06 09:50 | 44.88634 | -93.21020 | 821 ft | 13 kts | 117° |
| 2026-05-06 09:50 | 44.88593 | -93.20906 | 821 ft | 13 kts | 117° |
| 2026-05-06 09:51 | 44.88534 | -93.20808 | 821 ft | 13 kts | 128° |
| 2026-05-06 09:51 | 44.88487 | -93.20698 | 821 ft | 13 kts | 121° |
| 2026-05-06 09:51 | 44.88440 | -93.20590 | 822 ft | 13 kts | 121° |
| 2026-05-06 09:51 | 44.88392 | -93.20480 | 822 ft | 13 kts | 121° |
| 2026-05-06 09:52 | 44.88345 | -93.20370 | 822 ft | 13 kts | 121° |
| 2026-05-06 09:52 | 44.88297 | -93.20260 | 822 ft | 13 kts | 121° |
| 2026-05-06 09:52 | 44.88250 | -93.20149 | 822 ft | 13 kts | 117° |
| 2026-05-06 09:52 | 44.88217 | -93.20029 | 822 ft | 13 kts | 116° |
| 2026-05-06 09:53 | 44.88172 | -93.19914 | 822 ft | 13 kts | 121° |
| 2026-05-06 09:53 | 44.88123 | -93.19802 | 821 ft | 13 kts | 121° |
| 2026-05-06 09:53 | 44.88075 | -93.19690 | 821 ft | 14 kts | 121° |
| 2026-05-06 09:53 | 44.88030 | -93.19636 | 821 ft | 7 kts | 194° |
| 2026-05-06 09:54 | 44.87994 | -93.19667 | 822 ft | 4 kts | 245° |
| 2026-05-06 09:54 | 44.87995 | -93.19677 | 822 ft | 1 kts | 297° |
| 2026-05-06 09:54 | 44.87999 | -93.19685 | 822 ft | 0 kts | 308° |
| 2026-05-06 09:55 | 44.88003 | -93.19691 | 822 ft | 2 kts | 308° |
| 2026-05-06 09:55 | 44.88012 | -93.19709 | 822 ft | 1 kts | 304° |
| 2026-05-06 09:55 | 44.88013 | -93.19711 | 822 ft | 0 kts | 303° |